createdAt,value
2019-02-18T00:00:41.611Z,3.50
2019-02-18T00:03:24.942Z,3.30
2019-02-18T00:06:07.421Z,3.10
2019-02-18T00:08:48.147Z,3.10
2019-02-18T00:11:29.465Z,3.10
2019-02-18T00:14:09.832Z,3.00
2019-02-18T00:16:50.713Z,2.90
2019-02-18T00:19:31.169Z,3.10
2019-02-18T00:22:11.999Z,2.90
2019-02-18T00:24:52.959Z,3.10
2019-02-18T00:27:33.942Z,3.10
2019-02-18T00:30:14.694Z,3.00
2019-02-18T00:32:56.021Z,3.00
2019-02-18T00:35:37.549Z,3.00
2019-02-18T00:38:18.515Z,2.90
2019-02-18T00:40:59.571Z,2.90
2019-02-18T00:43:40.186Z,2.90
2019-02-18T00:46:20.666Z,2.70
2019-02-18T00:49:01.488Z,2.70
2019-02-18T00:51:42.082Z,2.70
2019-02-18T00:54:23.104Z,2.70
2019-02-18T00:57:05.061Z,2.80
2019-02-18T00:59:47.685Z,2.70
2019-02-18T01:02:28.886Z,2.60
2019-02-18T01:05:10.041Z,2.60
2019-02-18T01:10:56.039Z,2.90
2019-02-18T01:13:37.033Z,3.00
2019-02-18T01:16:17.561Z,2.80
2019-02-18T01:18:58.308Z,2.70
2019-02-18T01:21:39.280Z,2.70
2019-02-18T01:24:21.331Z,2.40
2019-02-18T01:27:02.103Z,2.40
2019-02-18T01:29:42.885Z,2.40
2019-02-18T01:32:25.950Z,2.50
2019-02-18T01:35:06.792Z,2.50
2019-02-18T01:37:47.618Z,2.60
2019-02-18T01:40:28.412Z,2.40
2019-02-18T01:43:09.102Z,2.20
2019-02-18T01:45:51.283Z,2.10
2019-02-18T01:48:33.694Z,2.20
2019-02-18T01:51:16.919Z,2.10
2019-02-18T01:53:58.337Z,2.20
2019-02-18T01:59:26.243Z,2.50
2019-02-18T02:02:08.221Z,2.60
2019-02-18T02:04:49.495Z,2.50
2019-02-18T02:07:31.603Z,2.60
2019-02-18T02:10:12.868Z,2.60
2019-02-18T02:12:53.641Z,2.20
2019-02-18T02:15:34.982Z,2.20
2019-02-18T02:18:15.915Z,2.10
2019-02-18T02:20:56.493Z,2.20
2019-02-18T02:23:36.940Z,2.10
2019-02-18T02:26:20.196Z,1.90
2019-02-18T02:29:00.459Z,2.10
2019-02-18T02:31:42.639Z,2.30
2019-02-18T02:34:22.981Z,2.30
2019-02-18T02:37:04.756Z,2.20
2019-02-18T02:39:45.415Z,2.40
2019-02-18T02:42:27.672Z,2.20
2019-02-18T02:45:08.781Z,1.70
2019-02-18T02:47:49.786Z,1.50
2019-02-18T02:50:31.171Z,1.40
2019-02-18T02:53:11.870Z,1.30
2019-02-18T02:55:53.372Z,1.20
2019-02-18T03:01:22.118Z,1.40
2019-02-18T03:04:03.007Z,1.20
2019-02-18T03:06:45.368Z,1.30
2019-02-18T03:09:30.977Z,1.40
2019-02-18T03:12:13.374Z,1.80
2019-02-18T03:14:54.789Z,2.10
2019-02-18T03:17:37.104Z,1.80
2019-02-18T03:20:17.804Z,1.80
2019-02-18T03:22:58.942Z,1.90
2019-02-18T03:25:39.597Z,1.90
2019-02-18T03:28:20.427Z,2.10
2019-02-18T03:31:01.283Z,2.30
2019-02-18T03:33:41.628Z,2.30
2019-02-18T03:36:23.901Z,2.40
2019-02-18T03:41:49.233Z,1.70
2019-02-18T03:44:30.627Z,1.50
2019-02-18T03:47:11.210Z,1.40
2019-02-18T03:49:51.844Z,1.20
2019-02-18T03:52:33.010Z,1.20
2019-02-18T03:58:04.811Z,1.30
2019-02-18T04:00:45.616Z,1.30
2019-02-18T04:03:26.200Z,1.40
2019-02-18T04:06:08.588Z,1.60
2019-02-18T04:11:38.008Z,1.10
2019-02-18T04:17:02.646Z,1.50
2019-02-18T04:19:43.344Z,1.50
2019-02-18T04:22:23.870Z,1.70
2019-02-18T04:27:48.750Z,1.30
2019-02-18T04:30:29.422Z,1.00
2019-02-18T04:33:10.144Z,0.90
2019-02-18T04:35:51.450Z,1.00
2019-02-18T04:41:16.136Z,1.40
2019-02-18T04:43:57.128Z,1.70
2019-02-18T04:46:38.370Z,1.70
2019-02-18T04:49:20.241Z,1.80
2019-02-18T04:52:01.210Z,1.60
2019-02-18T04:54:44.349Z,1.20
2019-02-18T04:57:28.287Z,1.30
2019-02-18T05:00:09.672Z,1.50
2019-02-18T05:02:38.226Z,1.90
2019-02-18T05:05:26.286Z,1.70
2019-02-18T05:08:14.327Z,1.50
2019-02-18T05:11:09.442Z,1.20
2019-02-18T05:14:18.199Z,1.30
2019-02-18T05:17:27.017Z,1.30
2019-02-18T05:20:15.530Z,1.00
2019-02-18T05:23:22.910Z,1.10
2019-02-18T05:29:30.512Z,1.30
2019-02-18T05:32:18.955Z,1.40
2019-02-18T05:35:07.102Z,1.50
2019-02-18T05:43:27.188Z,1.30
2019-02-18T05:46:14.970Z,1.50
2019-02-18T05:49:03.013Z,1.20
2019-02-18T05:51:50.861Z,0.90
2019-02-18T05:57:45.541Z,0.90
2019-02-18T06:00:33.554Z,1.00
2019-02-18T06:03:21.623Z,1.40
2019-02-18T06:06:28.650Z,0.90
2019-02-18T06:09:10.168Z,0.50
2019-02-18T06:11:51.385Z,0.80
2019-02-18T06:14:31.968Z,1.20
2019-02-18T06:17:12.251Z,0.90
2019-02-18T06:19:55.255Z,0.90
2019-02-18T06:22:35.540Z,0.90
2019-02-18T06:25:16.204Z,1.00
2019-02-18T06:27:57.186Z,1.20
2019-02-18T06:30:38.488Z,0.80
2019-02-18T06:33:22.468Z,0.90
2019-02-18T06:38:52.735Z,1.40
2019-02-18T06:41:33.679Z,1.00
2019-02-18T06:44:14.520Z,0.80
2019-02-18T06:46:56.923Z,0.60
2019-02-18T06:52:24.160Z,0.40
2019-02-18T06:55:05.293Z,0.40
2019-02-18T06:57:46.215Z,0.50
2019-02-18T07:00:28.879Z,0.70
2019-02-18T07:03:08.540Z,0.80
2019-02-18T07:09:01.379Z,1.10
2019-02-18T07:11:44.146Z,1.20
2019-02-18T07:14:25.279Z,1.20
2019-02-18T07:17:06.323Z,0.90
2019-02-18T07:19:47.382Z,0.80
2019-02-18T07:22:31.338Z,0.70
2019-02-18T07:25:11.529Z,0.70
2019-02-18T07:27:55.212Z,1.10
2019-02-18T07:30:35.885Z,1.10
2019-02-18T07:33:17.788Z,1.20
2019-02-18T07:35:59.703Z,1.50
2019-02-18T07:38:40.742Z,1.60
2019-02-18T07:41:21.270Z,1.70
2019-02-18T07:44:02.087Z,1.80
2019-02-18T07:46:42.946Z,1.90
2019-02-18T07:49:23.566Z,2.10
2019-02-18T07:54:43.010Z,2.30
2019-02-18T07:57:23.624Z,2.40
2019-02-18T08:00:04.198Z,2.40
2019-02-18T08:05:33.290Z,2.60
2019-02-18T08:08:14.011Z,2.60
2019-02-18T08:13:38.984Z,2.70
2019-02-18T08:16:19.937Z,2.80
2019-02-18T08:19:01.811Z,2.90
2019-02-18T08:21:43.205Z,3.00
2019-02-18T08:24:24.294Z,3.00
2019-02-18T08:27:04.833Z,3.00
2019-02-18T08:29:45.397Z,3.00
2019-02-18T08:35:11.264Z,3.10
2019-02-18T08:37:52.346Z,3.10
2019-02-18T08:40:34.614Z,3.20
2019-02-18T08:46:06.921Z,3.40
2019-02-18T08:48:49.639Z,3.50
2019-02-18T08:51:30.933Z,3.50
2019-02-18T08:56:55.698Z,3.60
2019-02-18T08:59:35.960Z,3.70
2019-02-18T09:02:17.110Z,3.70
2019-02-18T09:04:57.712Z,3.80
2019-02-18T09:07:38.293Z,3.90
2019-02-18T09:13:12.332Z,4.00
2019-02-18T09:16:00.186Z,4.00
2019-02-18T09:18:36.189Z,4.10
2019-02-18T09:21:16.956Z,4.10
2019-02-18T09:26:41.840Z,4.20
2019-02-18T09:32:08.482Z,4.30
2019-02-18T09:34:53.166Z,4.30
2019-02-18T09:37:31.783Z,4.30
2019-02-18T09:40:12.275Z,4.30
2019-02-18T09:42:53.671Z,4.30
2019-02-18T09:45:35.327Z,5.00
2019-02-18T09:48:16.029Z,5.10
2019-02-18T09:51:00.033Z,4.80
2019-02-18T09:56:27.387Z,4.80
2019-02-18T09:59:09.998Z,4.80
2019-02-18T10:01:50.517Z,4.80
2019-02-18T10:04:33.462Z,4.90
2019-02-18T10:07:17.083Z,5.00
2019-02-18T10:09:57.509Z,5.10
2019-02-18T10:12:38.049Z,5.20
2019-02-18T10:15:21.100Z,5.40
2019-02-18T10:18:05.901Z,5.40
2019-02-18T10:20:47.762Z,5.70
2019-02-18T10:23:29.495Z,5.80
2019-02-18T10:26:11.095Z,5.70
2019-02-18T10:28:51.965Z,5.60
2019-02-18T10:31:36.080Z,5.60
2019-02-18T10:34:17.324Z,5.70
2019-02-18T10:36:58.175Z,5.90
2019-02-18T10:39:40.716Z,5.90
2019-02-18T10:42:21.417Z,6.10
2019-02-18T10:45:01.660Z,6.00
2019-02-18T10:47:42.099Z,6.60
2019-02-18T10:53:07.640Z,6.60
2019-02-18T10:55:48.549Z,6.50
2019-02-18T10:58:31.622Z,6.70
2019-02-18T11:01:12.403Z,6.90
2019-02-18T11:06:39.374Z,6.90
2019-02-18T11:09:21.246Z,7.10
2019-02-18T11:18:16.565Z,7.90
2019-02-18T11:21:00.176Z,7.70
2019-02-18T11:23:46.072Z,7.60
2019-02-18T11:26:26.571Z,7.80
2019-02-18T11:29:09.304Z,8.20
2019-02-18T11:31:50.202Z,8.30
2019-02-18T11:34:31.612Z,8.30
2019-02-18T11:37:13.797Z,8.40
2019-02-18T11:39:54.938Z,8.60
2019-02-18T11:42:37.473Z,8.80
2019-02-18T11:45:19.102Z,8.70
2019-02-18T11:48:01.374Z,8.80
2019-02-18T11:53:27.404Z,8.90
2019-02-18T11:56:09.906Z,9.10
2019-02-18T11:58:52.468Z,9.30
2019-02-18T12:01:35.352Z,9.40
2019-02-18T12:04:16.444Z,9.60
2019-02-18T12:06:58.641Z,9.90
2019-02-18T12:12:29.579Z,10.20
2019-02-18T12:17:59.527Z,10.40
2019-02-18T12:20:40.130Z,10.40
2019-02-18T12:23:22.741Z,10.70
2019-02-18T12:28:49.618Z,10.80
2019-02-18T12:31:31.284Z,10.90
2019-02-18T12:34:13.002Z,10.90
2019-02-18T12:36:53.682Z,11.30
2019-02-18T12:39:34.367Z,11.50
2019-02-18T12:42:16.365Z,11.40
2019-02-18T12:44:59.732Z,11.40
2019-02-18T12:47:40.976Z,11.60
2019-02-18T12:50:23.622Z,11.60
2019-02-18T12:53:08.449Z,11.60
2019-02-18T12:55:50.170Z,11.50
2019-02-18T12:58:32.166Z,11.60
2019-02-18T13:01:13.224Z,11.90
2019-02-18T13:03:54.025Z,12.00
2019-02-18T13:06:35.736Z,12.40
2019-02-18T13:09:18.145Z,12.30
2019-02-18T13:14:44.686Z,12.50
2019-02-18T13:20:10.915Z,12.70
2019-02-18T13:22:53.979Z,12.70
2019-02-18T13:28:19.005Z,12.90
2019-02-18T13:31:04.211Z,13.00
2019-02-18T13:33:48.767Z,13.30
2019-02-18T13:36:30.581Z,13.50
2019-02-18T13:42:07.361Z,13.60
2019-02-18T13:44:49.128Z,13.60
2019-02-18T13:47:33.024Z,13.60
2019-02-18T13:50:18.974Z,13.60
2019-02-18T13:52:59.814Z,13.70
2019-02-18T13:55:45.712Z,13.90
2019-02-18T13:58:29.094Z,14.20
2019-02-18T14:01:10.424Z,14.00
2019-02-18T14:03:53.265Z,13.70
2019-02-18T14:09:17.971Z,13.80
2019-02-18T14:14:48.132Z,14.10
2019-02-18T14:17:29.758Z,14.10
2019-02-18T14:20:11.280Z,14.00
2019-02-18T14:22:51.770Z,13.70
2019-02-18T14:25:35.493Z,14.40
2019-02-18T14:28:18.711Z,14.60
2019-02-18T14:31:01.464Z,14.40
2019-02-18T14:33:44.413Z,14.60
2019-02-18T14:36:27.954Z,14.50
2019-02-18T14:39:10.595Z,14.40
2019-02-18T14:41:51.391Z,14.30
2019-02-18T14:44:32.185Z,14.30
2019-02-18T14:47:13.580Z,14.50
2019-02-18T14:49:57.535Z,14.60
2019-02-18T14:52:40.635Z,14.70
2019-02-18T14:55:22.422Z,14.60
2019-02-18T14:58:05.123Z,14.50
2019-02-18T15:00:48.185Z,14.50
2019-02-18T15:03:29.546Z,14.30
2019-02-18T15:06:13.128Z,14.40
2019-02-18T15:08:53.412Z,14.60
2019-02-18T15:11:34.393Z,14.70
2019-02-18T15:14:15.104Z,14.60
2019-02-18T15:16:55.730Z,14.70
2019-02-18T15:19:36.235Z,14.60
2019-02-18T15:22:19.457Z,14.60
2019-02-18T15:25:00.503Z,14.50
2019-02-18T15:27:42.155Z,14.50
2019-02-18T15:30:22.749Z,14.60
2019-02-18T15:33:03.143Z,14.80
2019-02-18T15:35:45.300Z,14.70
2019-02-18T15:38:26.294Z,14.60
2019-02-18T15:41:08.615Z,14.20
2019-02-18T15:46:37.565Z,14.00
2019-02-18T15:49:20.479Z,14.10
2019-02-18T15:52:03.420Z,14.00
2019-02-18T15:57:38.619Z,14.00
2019-02-18T16:00:19.624Z,14.00
2019-02-18T16:03:01.835Z,13.80
2019-02-18T16:05:43.209Z,13.70
2019-02-18T16:11:11.631Z,13.10
2019-02-18T16:16:38.207Z,12.70
2019-02-18T16:22:06.687Z,12.60
2019-02-18T16:27:33.196Z,12.70
2019-02-18T16:30:16.879Z,12.60
2019-02-18T16:32:57.631Z,12.40
2019-02-18T16:35:40.861Z,12.20
2019-02-18T16:38:21.739Z,12.10
2019-02-18T16:41:04.314Z,12.20
2019-02-18T16:43:46.876Z,12.10
2019-02-18T16:46:28.463Z,12.00
2019-02-18T16:49:09.366Z,11.90
2019-02-18T16:51:50.011Z,11.80
2019-02-18T16:54:33.386Z,11.60
2019-02-18T16:57:14.094Z,11.50
2019-02-18T16:59:56.407Z,11.30
2019-02-18T17:02:37.733Z,11.20
2019-02-18T17:05:45.767Z,11.20
2019-02-18T17:08:09.539Z,11.20
2019-02-18T17:10:52.082Z,11.10
2019-02-18T17:16:18.690Z,11.00
2019-02-18T17:19:01.744Z,11.00
2019-02-18T17:21:45.643Z,10.90
2019-02-18T17:24:26.656Z,10.80
2019-02-18T17:27:09.466Z,10.70
2019-02-18T17:29:50.689Z,10.60
2019-02-18T17:32:32.208Z,10.60
2019-02-18T17:35:12.990Z,10.50
2019-02-18T17:37:53.714Z,10.40
2019-02-18T17:43:20.524Z,10.00
2019-02-18T17:48:53.099Z,9.70
2019-02-18T17:51:34.588Z,9.60
2019-02-18T17:54:15.184Z,9.50
2019-02-18T17:56:56.122Z,9.30
2019-02-18T17:59:36.607Z,9.20
2019-02-18T18:02:26.315Z,9.10
2019-02-18T18:05:08.186Z,9.00
2019-02-18T18:07:53.809Z,8.80
2019-02-18T18:13:25.080Z,8.90
2019-02-18T18:18:50.437Z,9.00
2019-02-18T18:24:18.211Z,9.10
2019-02-18T18:27:01.459Z,9.10
2019-02-18T18:29:44.279Z,9.20
2019-02-18T18:35:16.608Z,9.10
2019-02-18T18:37:57.595Z,9.00
2019-02-18T18:40:37.988Z,8.90
2019-02-18T18:43:19.691Z,8.80
2019-02-18T18:46:00.615Z,8.60
2019-02-18T18:48:42.896Z,8.50
2019-02-18T18:51:23.900Z,8.50
2019-02-18T18:54:04.714Z,8.40
2019-02-18T18:56:45.904Z,8.40
2019-02-18T18:59:27.334Z,8.40
2019-02-18T19:02:08.199Z,8.40
2019-02-18T19:04:48.986Z,8.40
2019-02-18T19:07:30.311Z,8.40
2019-02-18T19:10:10.974Z,8.40
2019-02-18T19:12:56.139Z,8.50
2019-02-18T19:15:37.279Z,8.50
2019-02-18T19:18:19.863Z,8.30
2019-02-18T19:21:04.982Z,8.20
2019-02-18T19:23:46.351Z,8.10
2019-02-18T19:26:26.934Z,8.10
2019-02-18T19:29:08.162Z,8.00
2019-02-18T19:31:49.428Z,8.00
2019-02-18T19:34:30.419Z,7.90
2019-02-18T19:37:11.150Z,7.90
2019-02-18T19:39:52.524Z,7.90
2019-02-18T19:42:33.678Z,7.90
2019-02-18T19:45:16.116Z,8.10
2019-02-18T19:47:57.541Z,8.00
2019-02-18T19:50:38.225Z,8.00
2019-02-18T19:53:18.957Z,7.90
2019-02-18T19:56:00.291Z,7.80
2019-02-18T20:01:45.192Z,7.80
2019-02-18T20:04:25.975Z,7.80
2019-02-18T20:07:06.540Z,7.80
2019-02-18T20:09:47.040Z,7.80
2019-02-18T20:12:28.380Z,7.90
2019-02-18T20:15:09.486Z,8.00
2019-02-18T20:17:50.212Z,8.10
2019-02-18T20:20:34.238Z,8.00
2019-02-18T20:23:15.739Z,7.90
2019-02-18T20:25:57.353Z,7.80
2019-02-18T20:28:38.555Z,7.80
2019-02-18T20:31:18.992Z,7.80
2019-02-18T20:33:59.593Z,7.70
2019-02-18T20:36:40.644Z,7.60
2019-02-18T20:39:22.430Z,7.50
2019-02-18T20:42:03.874Z,7.40
2019-02-18T20:44:44.198Z,7.30
2019-02-18T20:47:25.099Z,7.10
2019-02-18T20:50:05.939Z,7.00
2019-02-18T20:52:48.258Z,6.40
2019-02-18T20:55:29.951Z,6.60
2019-02-18T20:58:10.689Z,6.60
2019-02-18T21:00:51.434Z,6.50
2019-02-18T21:03:32.745Z,6.60
2019-02-18T21:06:13.195Z,6.70
2019-02-18T21:08:55.264Z,6.80
2019-02-18T21:11:36.362Z,6.90
2019-02-18T21:14:16.898Z,6.90
2019-02-18T21:16:58.067Z,6.80
2019-02-18T21:22:47.846Z,6.20
2019-02-18T21:25:29.082Z,6.40
2019-02-18T21:28:09.538Z,6.00
2019-02-18T21:30:50.711Z,6.00
2019-02-18T21:33:31.696Z,6.10
2019-02-18T21:36:12.499Z,6.00
2019-02-18T21:38:53.448Z,5.80
2019-02-18T21:44:30.697Z,5.90
2019-02-18T21:47:11.346Z,6.00
2019-02-18T21:49:52.503Z,5.90
2019-02-18T21:52:33.871Z,6.00
2019-02-18T21:55:15.060Z,6.00
2019-02-18T21:57:55.766Z,6.00
2019-02-18T22:00:36.309Z,6.20
2019-02-18T22:03:17.830Z,6.20
2019-02-18T22:05:58.804Z,6.30
2019-02-18T22:08:39.508Z,6.40
2019-02-18T22:11:20.234Z,6.20
2019-02-18T22:14:01.026Z,6.00
2019-02-18T22:16:44.911Z,6.00
2019-02-18T22:19:25.439Z,6.10
2019-02-18T22:22:05.936Z,6.00
2019-02-18T22:24:47.859Z,6.00
2019-02-18T22:27:28.916Z,6.00
2019-02-18T22:30:09.556Z,6.00
2019-02-18T22:32:50.211Z,6.00
2019-02-18T22:35:31.444Z,6.00
2019-02-18T22:38:12.080Z,6.00
2019-02-18T22:40:52.926Z,5.90
2019-02-18T22:43:34.491Z,5.90
2019-02-18T22:46:15.179Z,5.80
2019-02-18T22:48:56.225Z,6.00
2019-02-18T22:51:36.744Z,5.90
2019-02-18T22:54:17.218Z,5.90
2019-02-18T22:57:01.462Z,6.00
2019-02-18T22:59:42.840Z,6.00
2019-02-18T23:02:23.648Z,6.10
2019-02-18T23:05:04.751Z,6.00
2019-02-18T23:07:45.890Z,5.90
2019-02-18T23:13:10.306Z,5.90
2019-02-18T23:15:51.786Z,5.90
2019-02-18T23:18:32.807Z,6.00
2019-02-18T23:21:13.630Z,6.00
2019-02-18T23:23:54.453Z,6.00
2019-02-18T23:26:35.026Z,6.00
2019-02-18T23:29:15.703Z,5.80
2019-02-18T23:31:56.300Z,5.70
2019-02-18T23:34:36.691Z,5.90
2019-02-18T23:37:17.668Z,5.90
2019-02-18T23:39:58.973Z,5.90
2019-02-18T23:42:39.964Z,5.80
2019-02-18T23:48:04.660Z,5.80
2019-02-18T23:50:45.735Z,5.80
2019-02-18T23:53:26.080Z,5.80
2019-02-18T23:56:07.208Z,5.70
2019-02-18T23:58:48.052Z,5.60
